Time;durP1;ratioP1;P1;durP2;ratioP2;P2;SDS_P1;SDS_P2;PMS_P1;PMS_P2;Temp;Humidity;BMP_temperature;BMP_pressure;BME280_temperature;BME280_humidity;BME280_pressure;Samples;Min_cycle;Max_cycle;Signal;HPM_P1;HPM_P2
2024/02/19 00:00:19;;;;;;;17.90;9.52;;;;;;;6.55;100.00;100893.53;5095678;28;20418;-77
2024/02/19 00:02:53;;;;;;;18.02;9.63;;;;;;;6.50;100.00;100898.84;5106026;27;20429;-78
2024/02/19 00:05:26;;;;;;;18.15;9.57;;;;;;;6.59;100.00;100900.88;5098662;27;20431;-78
2024/02/19 00:07:54;;;;;;;18.88;9.77;;;;;;;6.53;100.00;100892.94;5098859;28;20420;-78
2024/02/19 00:10:29;;;;;;;20.75;10.38;;;;;;;6.53;100.00;100901.06;5097099;28;20417;-78
2024/02/19 00:13:02;;;;;;;18.55;9.52;;;;;;;6.59;100.00;100898.19;5101857;27;20438;-78
2024/02/19 00:15:31;;;;;;;18.67;10.07;;;;;;;6.55;100.00;100897.03;5090477;27;20431;-77
2024/02/19 00:18:06;;;;;;;17.02;9.20;;;;;;;6.61;100.00;100906.03;5094686;28;20491;-78
2024/02/19 00:20:39;;;;;;;18.48;9.20;;;;;;;6.52;100.00;100905.66;5102782;27;20423;-78
2024/02/19 00:23:12;;;;;;;17.83;9.15;;;;;;;6.54;100.00;100908.09;5099817;27;20434;-78
2024/02/19 00:25:47;;;;;;;17.05;9.00;;;;;;;6.57;100.00;100905.75;5112009;27;20909;-78
2024/02/19 00:28:20;;;;;;;16.58;9.13;;;;;;;6.52;100.00;100921.88;5094834;28;20432;-78
2024/02/19 00:30:54;;;;;;;17.90;8.48;;;;;;;6.61;100.00;100914.97;5090953;27;20424;-78
2024/02/19 00:33:27;;;;;;;15.90;8.40;;;;;;;6.57;100.00;100921.97;5094621;28;20498;-78
2024/02/19 00:36:00;;;;;;;16.20;8.37;;;;;;;6.51;100.00;100917.53;5095842;27;20509;-78
2024/02/19 00:38:29;;;;;;;14.75;8.15;;;;;;;6.47;100.00;100919.09;5097555;28;20416;-78
2024/02/19 00:41:03;;;;;;;15.32;8.18;;;;;;;6.45;100.00;100918.53;5096397;28;20905;-78
2024/02/19 00:43:36;;;;;;;14.77;8.05;;;;;;;6.46;100.00;100920.97;5095924;27;20443;-78
2024/02/19 00:46:05;;;;;;;17.30;7.85;;;;;;;6.44;100.00;100925.78;5098159;28;20415;-78
2024/02/19 00:48:38;;;;;;;15.93;7.97;;;;;;;6.49;100.00;100926.94;5095603;28;20417;-78
2024/02/19 00:51:06;;;;;;;14.77;7.25;;;;;;;6.45;100.00;100921.22;5094453;28;20443;-77
2024/02/19 00:53:39;;;;;;;14.35;7.25;;;;;;;6.43;100.00;100928.75;5095339;28;20415;-78
2024/02/19 00:56:09;;;;;;;12.25;6.78;;;;;;;6.43;100.00;100920.63;5095386;28;20450;-78
2024/02/19 00:58:37;;;;;;;12.90;6.80;;;;;;;6.56;100.00;100923.03;5094787;28;20431;-78
2024/02/19 01:01:10;;;;;;;13.05;6.75;;;;;;;6.46;100.00;100920.97;5097458;28;20825;-78
2024/02/19 01:03:44;;;;;;;10.88;6.03;;;;;;;6.42;100.00;100919.84;5096347;28;20420;-78
2024/02/19 01:06:17;;;;;;;10.85;5.90;;;;;;;6.40;100.00;100923.84;5094972;28;20437;-78
2024/02/19 01:08:51;;;;;;;11.30;5.60;;;;;;;6.45;100.00;100915.81;5094599;28;20454;-78
2024/02/19 01:11:25;;;;;;;10.37;5.60;;;;;;;6.44;100.00;100920.38;5094833;28;20910;-78
2024/02/19 01:13:58;;;;;;;10.05;5.00;;;;;;;6.43;100.00;100921.44;5110047;28;20426;-78
2024/02/19 01:16:32;;;;;;;10.10;5.20;;;;;;;6.44;100.00;100925.78;5095193;28;20431;-77
2024/02/19 01:19:06;;;;;;;9.83;5.33;;;;;;;6.40;100.00;100927.34;5097200;28;20904;-78
2024/02/19 01:21:39;;;;;;;10.73;5.40;;;;;;;6.43;100.00;100926.03;5093629;28;21012;-78
2024/02/19 01:24:12;;;;;;;11.15;4.93;;;;;;;6.51;100.00;100928.34;5099213;28;20424;-78
2024/02/19 01:26:47;;;;;;;8.43;4.32;;;;;;;6.50;100.00;100926.69;5095303;28;20432;-78
2024/02/19 01:29:20;;;;;;;8.88;4.53;;;;;;;6.49;100.00;100927.78;5108445;27;20444;-78
2024/02/19 01:31:53;;;;;;;8.98;4.40;;;;;;;6.41;100.00;100931.69;5110589;27;20432;-78
2024/02/19 01:34:26;;;;;;;8.65;4.43;;;;;;;6.45;100.00;100932.84;5092099;28;20439;-78
2024/02/19 01:36:54;;;;;;;9.45;4.40;;;;;;;6.44;100.00;100927.69;5095774;28;20797;-78
2024/02/19 01:39:28;;;;;;;9.93;4.40;;;;;;;6.45;100.00;100927.44;5095380;28;20450;-78
2024/02/19 01:42:03;;;;;;;8.65;4.28;;;;;;;6.44;100.00;100925.00;5093551;28;20420;-78
2024/02/19 01:44:31;;;;;;;8.48;4.35;;;;;;;6.41;100.00;100917.38;5098270;28;20417;-78
2024/02/19 01:47:05;;;;;;;7.43;4.10;;;;;;;6.41;100.00;100926.28;5097641;28;21980;-78
2024/02/19 01:49:38;;;;;;;8.55;4.40;;;;;;;6.44;100.00;100920.38;5110089;28;20416;-78
2024/02/19 01:52:12;;;;;;;8.48;4.57;;;;;;;6.49;100.00;100930.50;5093097;28;20422;-78
2024/02/19 01:54:45;;;;;;;8.23;4.32;;;;;;;6.41;100.00;100928.19;5113510;28;20445;-78
2024/02/19 01:57:15;;;;;;;8.05;4.20;;;;;;;6.48;100.00;100934.25;5096526;28;20446;-78
2024/02/19 01:59:45;;;;;;;8.90;4.60;;;;;;;6.41;100.00;100939.00;5098006;28;20424;-78
2024/02/19 02:02:18;;;;;;;9.80;4.67;;;;;;;6.42;100.00;100938.75;5095357;28;20422;-77
2024/02/19 02:04:51;;;;;;;8.65;4.20;;;;;;;6.42;100.00;100941.47;5097881;28;20421;-78
2024/02/19 02:07:26;;;;;;;8.80;4.10;;;;;;;6.43;100.00;100939.56;5092657;28;20817;-78
2024/02/19 02:10:04;;;;;;;6.20;3.28;;;;;;;6.36;100.00;100944.31;5093245;28;20431;-78
2024/02/19 02:12:38;;;;;;;6.57;3.35;;;;;;;6.35;100.00;100940.78;5107434;27;20429;-78
2024/02/19 02:15:12;;;;;;;6.68;3.35;;;;;;;6.39;100.00;100941.94;5093748;28;20427;-78
2024/02/19 02:17:43;;;;;;;5.63;2.97;;;;;;;6.28;100.00;100942.84;5096314;28;20420;-78
2024/02/19 02:20:17;;;;;;;5.20;2.60;;;;;;;6.33;100.00;100940.22;5094421;28;20422;-78
2024/02/19 02:22:50;;;;;;;6.65;3.00;;;;;;;6.35;100.00;100938.06;5093130;28;20438;-78
2024/02/19 02:25:23;;;;;;;5.97;2.88;;;;;;;6.38;100.00;100942.19;5101144;28;20506;-78
2024/02/19 02:27:58;;;;;;;6.07;3.05;;;;;;;6.27;100.00;100943.88;5099988;27;20428;-78
2024/02/19 02:30:31;;;;;;;9.02;2.90;;;;;;;6.18;100.00;100943.47;5102243;27;20424;-78
2024/02/19 02:33:05;;;;;;;7.27;3.20;;;;;;;6.23;100.00;100946.28;5101603;28;20648;-77
2024/02/19 02:35:38;;;;;;;6.13;3.05;;;;;;;6.26;100.00;100944.97;5102679;27;20427;-78
2024/02/19 02:38:11;;;;;;;5.90;3.00;;;;;;;6.18;100.00;100959.69;5100298;27;20412;-78
2024/02/19 02:40:44;;;;;;;6.10;2.90;;;;;;;6.17;100.00;100958.03;5095875;27;21368;-78
2024/02/19 02:43:19;;;;;;;5.63;2.90;;;;;;;6.07;100.00;100974.09;5098252;28;20867;-78
2024/02/19 02:45:52;;;;;;;6.70;3.60;;;;;;;5.96;100.00;100978.44;5097705;28;20431;-78
2024/02/19 02:48:20;;;;;;;6.88;3.40;;;;;;;5.98;100.00;100981.78;5099544;27;20422;-78
2024/02/19 02:50:53;;;;;;;7.05;3.53;;;;;;;5.98;100.00;100989.88;5101499;27;20425;-78
2024/02/19 02:53:27;;;;;;;6.05;3.15;;;;;;;5.81;100.00;100997.88;5114318;27;20426;-78
2024/02/19 02:56:00;;;;;;;6.17;3.10;;;;;;;5.74;100.00;100989.09;5096881;28;20444;-78
2024/02/19 02:58:34;;;;;;;7.00;3.00;;;;;;;5.66;100.00;100990.28;5114764;27;20432;-78
2024/02/19 03:01:07;;;;;;;6.35;2.80;;;;;;;5.78;100.00;101004.56;5110069;27;20429;-78
2024/02/19 03:03:41;;;;;;;6.55;2.70;;;;;;;5.66;100.00;100998.38;5097807;28;20433;-78
2024/02/19 03:06:14;;;;;;;6.25;3.22;;;;;;;5.61;100.00;101004.50;5097542;28;20919;-78
2024/02/19 03:08:47;;;;;;;7.28;3.47;;;;;;;5.56;100.00;101009.00;5098332;28;20435;-78
2024/02/19 03:11:21;;;;;;;6.80;2.88;;;;;;;5.51;100.00;101006.19;5110642;27;20750;-77
2024/02/19 03:13:51;;;;;;;6.13;3.05;;;;;;;5.40;100.00;101019.47;5112719;27;20426;-78
2024/02/19 03:16:24;;;;;;;7.37;2.83;;;;;;;5.36;100.00;101030.94;5096227;28;20429;-78
2024/02/19 03:18:59;;;;;;;6.07;2.50;;;;;;;5.24;100.00;101015.59;5096380;28;20454;-77
2024/02/19 03:21:32;;;;;;;7.05;2.90;;;;;;;5.22;100.00;101025.81;5089439;28;20429;-78
2024/02/19 03:24:07;;;;;;;6.30;2.80;;;;;;;5.19;100.00;101033.56;5097914;28;20436;-78
2024/02/19 03:26:41;;;;;;;6.38;2.53;;;;;;;5.27;100.00;101030.50;5098139;27;20415;-78
2024/02/19 03:29:16;;;;;;;5.75;2.70;;;;;;;5.24;100.00;101025.59;5112321;27;20447;-77
2024/02/19 03:31:44;;;;;;;5.60;2.50;;;;;;;5.16;100.00;101044.81;5095811;27;20412;-78
2024/02/19 03:34:17;;;;;;;5.38;2.50;;;;;;;5.10;100.00;101042.00;5098173;28;20773;-77
2024/02/19 03:36:52;;;;;;;5.95;2.38;;;;;;;5.14;100.00;101052.31;5089028;27;20489;-78
2024/02/19 03:39:20;;;;;;;4.47;2.30;;;;;;;5.04;100.00;101047.50;5088148;28;21032;-77
2024/02/19 03:41:53;;;;;;;5.28;2.42;;;;;;;5.05;100.00;101059.94;5095939;28;20400;-77
2024/02/19 03:44:23;;;;;;;5.18;2.20;;;;;;;4.99;100.00;101061.69;5112549;27;20428;-77
2024/02/19 03:46:56;;;;;;;4.53;2.33;;;;;;;5.03;100.00;101060.19;5103457;27;20996;-78
2024/02/19 03:49:29;;;;;;;5.33;2.40;;;;;;;5.09;100.00;101070.03;5095329;28;20424;-77
2024/02/19 03:52:02;;;;;;;4.75;2.33;;;;;;;4.97;100.00;101071.88;5096305;28;20425;-77
2024/02/19 03:54:30;;;;;;;5.32;2.30;;;;;;;5.03;100.00;101079.06;5096413;27;20426;-77
2024/02/19 03:57:04;;;;;;;6.05;2.40;;;;;;;4.97;100.00;101073.78;5097973;28;20420;-78
2024/02/19 03:59:39;;;;;;;5.88;2.65;;;;;;;4.96;100.00;101086.44;5096409;28;20432;-77
2024/02/19 04:02:12;;;;;;;5.70;2.47;;;;;;;5.03;100.00;101087.16;5096271;28;20424;-77
2024/02/19 04:04:45;;;;;;;5.10;2.50;;;;;;;5.04;100.00;101096.06;5097001;28;20420;-78
2024/02/19 04:07:18;;;;;;;5.97;2.70;;;;;;;4.96;100.00;101105.31;5098506;27;20792;-77
2024/02/19 04:09:51;;;;;;;5.15;2.50;;;;;;;4.98;100.00;101097.81;5100066;27;20411;-78
2024/02/19 04:12:25;;;;;;;5.95;2.60;;;;;;;4.89;100.00;101110.81;5100246;27;20431;-77
2024/02/19 04:14:59;;;;;;;7.70;3.05;;;;;;;4.91;100.00;101114.09;5100057;28;20425;-77
2024/02/19 04:17:27;;;;;;;6.38;2.60;;;;;;;4.86;100.00;101105.06;5086398;28;20437;-77
2024/02/19 04:20:00;;;;;;;7.13;3.10;;;;;;;4.87;100.00;101115.59;5098154;28;20412;-78
2024/02/19 04:22:34;;;;;;;7.95;3.10;;;;;;;5.00;100.00;101129.94;5095582;27;20422;-77
2024/02/19 04:25:08;;;;;;;7.63;3.47;;;;;;;4.91;100.00;101126.78;5095503;28;20420;-77
2024/02/19 04:27:36;;;;;;;8.77;3.67;;;;;;;4.92;100.00;101126.53;5100068;27;20444;-78
2024/02/19 04:30:07;;;;;;;9.35;3.70;;;;;;;4.91;100.00;101137.56;5096724;28;20422;-78
2024/02/19 04:32:35;;;;;;;9.07;4.10;;;;;;;4.90;100.00;101136.75;5128862;27;20435;-77
2024/02/19 04:35:09;;;;;;;9.57;4.30;;;;;;;4.94;100.00;101148.72;5096344;28;20429;-77
2024/02/19 04:37:42;;;;;;;10.50;4.32;;;;;;;4.95;100.00;101144.13;5093238;28;20432;-77
2024/02/19 04:40:15;;;;;;;8.50;4.00;;;;;;;4.92;100.00;101152.69;5096522;27;20424;-78
2024/02/19 04:42:48;;;;;;;12.15;4.70;;;;;;;4.88;100.00;101154.22;5095946;28;21037;-77
2024/02/19 04:45:23;;;;;;;12.15;5.10;;;;;;;4.92;100.00;101158.09;5099532;27;20981;-78
2024/02/19 04:47:51;;;;;;;9.25;4.40;;;;;;;5.00;100.00;101154.22;5094653;28;20416;-77
2024/02/19 04:50:24;;;;;;;11.80;4.60;;;;;;;4.94;100.00;101158.66;5095213;28;20425;-77
2024/02/19 04:52:58;;;;;;;11.25;4.65;;;;;;;4.83;100.00;101167.56;5096805;28;20424;-77
2024/02/19 04:55:31;;;;;;;9.70;4.30;;;;;;;4.79;100.00;101167.19;5095498;28;20436;-77
2024/02/19 04:58:04;;;;;;;8.60;3.83;;;;;;;4.85;100.00;101173.56;5094775;28;20441;-77
2024/02/19 05:00:40;;;;;;;10.87;4.00;;;;;;;4.75;100.00;101158.75;5096049;28;20429;-77
2024/02/19 05:03:14;;;;;;;8.10;3.78;;;;;;;4.76;100.00;101170.34;5125758;27;20417;-78
2024/02/19 05:05:47;;;;;;;9.23;3.70;;;;;;;4.69;100.00;101185.78;5096657;27;20954;-78
2024/02/19 05:08:20;;;;;;;7.32;3.35;;;;;;;4.65;100.00;101177.31;5094471;27;20412;-78
2024/02/19 05:10:54;;;;;;;7.80;3.60;;;;;;;4.63;100.00;101184.84;5096310;28;20436;-78
2024/02/19 05:13:27;;;;;;;7.22;3.42;;;;;;;4.67;100.00;101190.56;5095812;28;20424;-77
2024/02/19 05:16:01;;;;;;;7.10;3.30;;;;;;;4.59;100.00;101191.72;5099374;28;20428;-78
2024/02/19 05:18:35;;;;;;;6.57;3.15;;;;;;;4.62;100.00;101193.16;5094788;28;20416;-78
2024/02/19 05:21:08;;;;;;;8.93;2.92;;;;;;;4.58;100.00;101195.47;5095672;28;20874;-78
2024/02/19 05:23:36;;;;;;;6.80;2.70;;;;;;;4.53;100.00;101193.47;5096066;28;20423;-77
2024/02/19 05:26:09;;;;;;;9.20;2.80;;;;;;;4.52;100.00;101189.09;5094209;28;20457;-77
2024/02/19 05:28:42;;;;;;;5.10;2.50;;;;;;;4.53;100.00;101201.53;5095390;28;20466;-77
2024/02/19 05:31:32;;;;;;;7.97;2.50;;;;;;;4.60;100.00;101202.28;5113307;27;20447;-77
2024/02/19 05:34:08;;;;;;;7.20;2.93;;;;;;;4.57;100.00;101210.81;5097267;28;20459;-78
2024/02/19 05:36:41;;;;;;;7.05;2.55;;;;;;;4.50;100.00;101211.94;5096564;28;20427;-78
2024/02/19 05:39:14;;;;;;;8.40;2.97;;;;;;;4.52;100.00;101210.66;5093114;28;20922;-77
2024/02/19 05:41:47;;;;;;;7.30;2.85;;;;;;;4.57;100.00;101210.81;5092050;28;21239;-77
2024/02/19 05:44:20;;;;;;;7.07;3.00;;;;;;;4.56;100.00;101208.34;5094211;28;20420;-77
2024/02/19 05:46:55;;;;;;;8.52;2.90;;;;;;;4.57;100.00;101215.38;5097387;28;20427;-77
2024/02/19 05:49:28;;;;;;;8.63;2.88;;;;;;;4.51;100.00;101222.50;5095889;28;20416;-78
2024/02/19 05:52:01;;;;;;;7.65;3.08;;;;;;;4.52;100.00;101215.25;5095659;28;20424;-77
2024/02/19 05:54:34;;;;;;;8.85;3.13;;;;;;;4.50;100.00;101220.88;5094862;28;20424;-78
2024/02/19 05:57:08;;;;;;;7.30;2.70;;;;;;;4.58;100.00;101217.03;5093752;28;20422;-78
2024/02/19 05:59:36;;;;;;;6.83;2.50;;;;;;;4.49;100.00;101221.91;5091509;28;20427;-77
2024/02/19 06:02:10;;;;;;;6.07;2.42;;;;;;;4.55;100.00;101237.16;5098477;27;20425;-78
2024/02/19 06:04:44;;;;;;;6.40;2.35;;;;;;;4.54;100.00;101245.47;5098265;28;20421;-77
2024/02/19 06:07:19;;;;;;;6.18;2.30;;;;;;;4.55;100.00;101239.88;5099484;27;20431;-77
2024/02/19 06:09:52;;;;;;;5.65;1.92;;;;;;;4.52;100.00;101244.91;5089291;27;20420;-78
2024/02/19 06:12:26;;;;;;;6.32;2.10;;;;;;;4.57;100.00;101245.03;5097039;27;21029;-77
2024/02/19 06:14:59;;;;;;;5.68;1.60;;;;;;;4.56;100.00;101243.41;5095603;28;20421;-78
2024/02/19 06:17:33;;;;;;;5.03;1.80;;;;;;;4.57;100.00;101271.97;5093396;28;20435;-79
2024/02/19 06:20:07;;;;;;;5.13;1.48;;;;;;;4.55;100.00;101256.03;5092902;27;20489;-79
2024/02/19 06:22:40;;;;;;;3.33;1.40;;;;;;;4.59;100.00;101264.50;5096055;27;20422;-78
2024/02/19 06:25:13;;;;;;;2.95;1.00;;;;;;;4.57;100.00;101258.50;5095140;27;20414;-78
2024/02/19 06:27:47;;;;;;;2.00;0.90;;;;;;;4.59;100.00;101276.09;5095255;28;20477;-78
2024/02/19 06:30:16;;;;;;;3.58;1.10;;;;;;;4.56;100.00;101278.44;5093169;28;20440;-78
2024/02/19 06:32:51;;;;;;;5.03;1.00;;;;;;;4.65;100.00;101270.88;5095989;28;20422;-78
2024/02/19 06:35:19;;;;;;;2.50;0.85;;;;;;;4.58;100.00;101289.81;5094823;28;20453;-78
2024/02/19 06:37:52;;;;;;;2.92;0.82;;;;;;;4.63;100.00;101283.72;5103156;27;20452;-80
2024/02/19 06:40:26;;;;;;;1.20;0.70;;;;;;;4.73;100.00;101286.75;5085797;28;20427;-78
2024/02/19 06:42:54;;;;;;;1.80;0.70;;;;;;;4.65;100.00;101293.25;5071574;28;20435;-78
2024/02/19 06:45:22;;;;;;;2.30;0.90;;;;;;;4.54;100.00;101304.78;5080629;28;20447;-78
2024/02/19 06:47:57;;;;;;;1.33;0.70;;;;;;;4.55;100.00;101296.47;5078678;28;21013;-79
2024/02/19 06:50:30;;;;;;;2.53;0.80;;;;;;;4.53;100.00;101301.28;5083255;28;22326;-79
2024/02/19 06:53:06;;;;;;;1.42;0.70;;;;;;;4.48;100.00;101319.97;5079975;28;20419;-79
2024/02/19 06:55:39;;;;;;;1.80;0.70;;;;;;;4.55;100.00;101325.31;5078783;28;20430;-77
2024/02/19 06:58:07;;;;;;;2.30;0.80;;;;;;;4.66;100.00;101323.75;5075392;28;20437;-77
2024/02/19 07:00:40;;;;;;;1.20;0.60;;;;;;;4.54;100.00;101329.88;5082469;27;20431;-77
2024/02/19 07:03:15;;;;;;;1.17;0.50;;;;;;;4.57;100.00;101331.28;5080192;28;20959;-77
2024/02/19 07:05:48;;;;;;;0.43;0.40;;;;;;;4.58;100.00;101333.78;5109701;27;20436;-77
2024/02/19 07:08:21;;;;;;;1.08;0.52;;;;;;;4.52;100.00;101341.94;5078111;28;20432;-77
2024/02/19 07:10:55;;;;;;;0.52;0.43;;;;;;;4.70;100.00;101341.13;5091131;27;20437;-77
2024/02/19 07:13:28;;;;;;;0.57;0.50;;;;;;;4.79;100.00;101352.44;5076935;28;20417;-77
2024/02/19 07:16:01;;;;;;;0.73;0.53;;;;;;;4.66;100.00;101353.41;5081204;27;20445;-77
2024/02/19 07:18:36;;;;;;;1.20;0.60;;;;;;;4.72;100.00;101361.44;5077107;27;21293;-77
2024/02/19 07:21:09;;;;;;;1.73;0.50;;;;;;;4.93;100.00;101360.16;5077279;28;20416;-77
2024/02/19 07:23:46;;;;;;;0.60;0.50;;;;;;;4.70;100.00;101362.69;5071106;28;20481;-78
2024/02/19 07:26:22;;;;;;;0.90;0.60;;;;;;;4.69;100.00;101367.25;5079461;28;20409;-78
2024/02/19 07:28:52;;;;;;;0.95;0.55;;;;;;;4.74;100.00;101366.59;5075981;27;20427;-78
2024/02/19 07:31:20;;;;;;;1.10;0.60;;;;;;;4.72;100.00;101369.53;5089415;27;20450;-78
2024/02/19 07:33:55;;;;;;;1.38;0.50;;;;;;;4.86;100.00;101361.25;5070413;28;20432;-78
2024/02/19 07:36:28;;;;;;;1.00;0.70;;;;;;;4.83;100.00;101376.00;5057327;28;21338;-78
2024/02/19 07:39:02;;;;;;;1.45;1.00;;;;;;;4.90;100.00;101376.78;5073107;28;21119;-78
2024/02/19 07:41:30;;;;;;;1.17;0.88;;;;;;;5.00;100.00;101376.25;5072541;28;20431;-78
2024/02/19 07:44:03;;;;;;;2.88;1.20;;;;;;;4.98;100.00;101386.44;5071919;28;20420;-78
2024/02/19 07:46:36;;;;;;;2.05;1.30;;;;;;;5.11;100.00;101393.56;5069039;27;20428;-78
2024/02/19 07:49:06;;;;;;;2.38;1.40;;;;;;;5.09;100.00;101388.38;5072776;28;21263;-77
2024/02/19 07:51:39;;;;;;;2.63;1.50;;;;;;;5.11;100.00;101389.00;5077991;28;20417;-77
2024/02/19 07:54:07;;;;;;;2.65;1.30;;;;;;;5.20;100.00;101388.69;5078905;28;20427;-77
2024/02/19 07:56:40;;;;;;;3.53;1.50;;;;;;;5.22;100.00;101391.97;5076099;28;21162;-77
2024/02/19 07:59:14;;;;;;;9.65;3.97;;;;;;;5.28;100.00;101381.09;5071728;28;20424;-77
2024/02/19 08:01:47;;;;;;;5.55;2.75;;;;;;;5.36;100.00;101390.78;5080609;28;20428;-77
2024/02/19 08:04:26;;;;;;;6.93;3.23;;;;;;;5.32;100.00;101394.97;5063179;28;20446;-77
2024/02/19 08:07:00;;;;;;;4.15;1.80;;;;;;;5.33;100.00;101407.41;5070086;28;20424;-77
2024/02/19 08:09:33;;;;;;;4.20;1.90;;;;;;;5.24;100.00;101408.78;5086134;27;20428;-78
2024/02/19 08:12:06;;;;;;;4.32;2.30;;;;;;;5.36;100.00;101408.81;5089339;27;20427;-77
2024/02/19 08:14:40;;;;;;;2.53;1.40;;;;;;;5.36;100.00;101408.81;5076523;28;20420;-77
2024/02/19 08:17:08;;;;;;;4.00;1.77;;;;;;;5.30;100.00;101415.94;5077018;28;22115;-77
2024/02/19 08:19:42;;;;;;;2.15;1.10;;;;;;;5.38;100.00;101422.94;5078786;28;20415;-77
2024/02/19 08:22:16;;;;;;;2.00;1.00;;;;;;;5.42;100.00;101414.13;5074490;28;20428;-77
2024/02/19 08:24:49;;;;;;;2.10;1.27;;;;;;;5.50;100.00;101418.41;5071208;28;20420;-78
2024/02/19 08:27:17;;;;;;;2.55;1.10;;;;;;;5.54;100.00;101416.09;5069845;28;20420;-77
2024/02/19 08:29:45;;;;;;;2.78;1.33;;;;;;;5.50;100.00;101418.41;5068011;28;20988;-77
2024/02/19 08:32:19;;;;;;;3.23;1.40;;;;;;;5.48;100.00;101411.59;5074913;28;20416;-77
2024/02/19 08:34:53;;;;;;;5.03;1.85;;;;;;;5.53;100.00;101419.84;5073741;28;20436;-77
2024/02/19 08:37:26;;;;;;;3.83;1.17;;;;;;;5.59;100.00;101421.59;5078416;28;20431;-77
2024/02/19 08:39:55;;;;;;;2.08;1.08;;;;;;;5.68;100.00;101414.03;5068112;28;20461;-78
2024/02/19 08:42:23;;;;;;;4.00;1.20;;;;;;;5.61;100.00;101424.91;5071820;28;22217;-78
2024/02/19 08:44:56;;;;;;;2.80;1.20;;;;;;;5.66;100.00;101413.44;5069989;28;20804;-77
2024/02/19 08:47:24;;;;;;;3.83;1.20;;;;;;;5.77;100.00;101410.78;5074295;28;20424;-77
2024/02/19 08:49:59;;;;;;;3.75;1.40;;;;;;;5.95;100.00;101412.59;5077965;28;20412;-77
2024/02/19 08:52:32;;;;;;;3.25;1.08;;;;;;;5.93;100.00;101417.41;5074379;28;20416;-77
2024/02/19 08:55:06;;;;;;;3.00;1.20;;;;;;;5.95;100.00;101417.16;5075937;28;20424;-78
2024/02/19 08:57:39;;;;;;;4.55;1.30;;;;;;;5.93;100.00;101420.09;5073096;28;20423;-77
2024/02/19 09:00:13;;;;;;;3.50;1.10;;;;;;;6.01;100.00;101410.03;5070773;28;20432;-77
2024/02/19 09:02:46;;;;;;;4.27;1.00;;;;;;;6.07;100.00;101414.53;5058820;28;20863;-77
2024/02/19 09:05:17;;;;;;;2.10;0.90;;;;;;;6.05;100.00;101422.88;5069659;28;20427;-77
2024/02/19 09:07:50;;;;;;;1.17;0.77;;;;;;;6.10;100.00;101422.16;5069626;27;20427;-77
2024/02/19 09:10:23;;;;;;;2.43;1.10;;;;;;;6.21;100.00;101418.66;5071719;28;20477;-78
2024/02/19 09:12:57;;;;;;;2.72;1.08;;;;;;;6.17;100.00;101431.00;5069521;28;20417;-77
2024/02/19 09:15:26;;;;;;;2.67;0.93;;;;;;;6.26;100.00;101412.56;5088044;27;20420;-79
2024/02/19 09:17:54;;;;;;;2.42;0.95;;;;;;;6.22;100.00;101425.72;5090958;27;20427;-77
2024/02/19 09:20:24;;;;;;;4.30;1.20;;;;;;;6.19;100.00;101415.38;5081549;28;20420;-77
2024/02/19 09:22:57;;;;;;;3.22;1.30;;;;;;;6.20;100.00;101410.78;5076641;28;20428;-78
2024/02/19 09:25:25;;;;;;;3.60;1.50;;;;;;;6.33;100.00;101405.16;5075577;28;20425;-77
2024/02/19 09:27:58;;;;;;;3.78;1.40;;;;;;;6.46;100.00;101417.63;5069436;28;20420;-78
2024/02/19 09:30:32;;;;;;;2.90;1.30;;;;;;;6.51;100.00;101417.75;5071536;28;20428;-78
2024/02/19 09:33:06;;;;;;;3.10;1.33;;;;;;;6.23;100.00;101408.44;5086594;27;20565;-77
2024/02/19 09:35:40;;;;;;;3.35;1.50;;;;;;;6.33;100.00;101409.78;5080705;28;20431;-78
2024/02/19 09:38:09;;;;;;;3.43;1.50;;;;;;;6.45;100.00;101411.41;5075349;28;20431;-78
2024/02/19 09:40:37;;;;;;;3.80;1.30;;;;;;;6.49;100.00;101410.94;5075445;28;20422;-77
2024/02/19 09:43:06;;;;;;;3.63;1.40;;;;;;;6.58;100.00;101410.34;5070291;28;21546;-77
2024/02/19 09:45:40;;;;;;;3.13;1.40;;;;;;;6.57;100.00;101411.44;5074140;28;20428;-78
2024/02/19 09:48:14;;;;;;;3.72;1.33;;;;;;;6.56;100.00;101415.19;5074819;28;22075;-77
2024/02/19 09:50:49;;;;;;;4.70;1.30;;;;;;;6.55;100.00;101412.72;5076429;28;20427;-77
2024/02/19 09:53:21;;;;;;;3.25;1.10;;;;;;;6.69;100.00;101427.66;5079943;28;20419;-77
2024/02/19 09:55:54;;;;;;;4.10;1.40;;;;;;;6.62;100.00;101418.84;5077235;28;20428;-78
2024/02/19 09:58:29;;;;;;;6.65;1.25;;;;;;;6.77;100.00;101423.78;5074292;28;20851;-77
2024/02/19 10:01:03;;;;;;;5.55;1.40;;;;;;;6.79;100.00;101430.59;5073905;27;20432;-77
2024/02/19 10:03:36;;;;;;;2.77;1.13;;;;;;;6.83;100.00;101432.81;5065080;27;20427;-78
2024/02/19 10:06:08;;;;;;;4.63;1.70;;;;;;;6.61;100.00;101434.22;5058271;27;20433;-77
2024/02/19 10:08:41;;;;;;;5.50;1.50;;;;;;;6.79;100.00;101441.41;5078126;27;20417;-77
2024/02/19 10:11:16;;;;;;;5.10;1.50;;;;;;;6.83;100.00;101435.53;5074244;28;20423;-77
2024/02/19 10:13:52;;;;;;;4.47;1.40;;;;;;;6.90;100.00;101449.75;5077663;28;20998;-77
2024/02/19 10:16:25;;;;;;;5.03;1.63;;;;;;;7.10;100.00;101449.41;5075687;28;20424;-78
2024/02/19 10:19:05;;;;;;;6.33;1.53;;;;;;;7.07;100.00;101444.44;5081006;27;20431;-78
2024/02/19 10:21:40;;;;;;;4.95;1.50;;;;;;;7.11;100.00;101435.63;5083353;27;20432;-77
2024/02/19 10:24:13;;;;;;;6.07;1.70;;;;;;;7.26;100.00;101442.41;5075870;28;20434;-77
2024/02/19 10:26:47;;;;;;;6.78;1.80;;;;;;;7.23;100.00;101448.31;5076163;28;20424;-78
2024/02/19 10:29:16;;;;;;;6.75;1.80;;;;;;;7.28;100.00;101445.72;5077327;28;20432;-77
2024/02/19 10:31:49;;;;;;;5.15;1.55;;;;;;;7.30;100.00;101443.56;5071713;28;20428;-78
2024/02/19 10:34:22;;;;;;;5.50;1.50;;;;;;;7.46;100.00;101437.41;5072842;27;20807;-77
2024/02/19 10:36:58;;;;;;;6.95;1.67;;;;;;;7.43;100.00;101442.47;5072237;27;20416;-78
2024/02/19 10:39:32;;;;;;;6.47;1.70;;;;;;;7.46;100.00;101437.41;5076202;27;20432;-77
2024/02/19 10:42:05;;;;;;;4.55;1.50;;;;;;;7.57;100.00;101446.56;5074846;28;22095;-78
2024/02/19 10:44:34;;;;;;;7.00;1.60;;;;;;;7.70;100.00;101436.50;5093364;27;20432;-78
2024/02/19 10:47:04;;;;;;;5.97;1.20;;;;;;;7.70;100.00;101447.34;5075722;28;20424;-77
2024/02/19 10:49:37;;;;;;;6.55;1.40;;;;;;;7.57;100.00;101451.19;5076978;28;20428;-77
2024/02/19 10:52:12;;;;;;;3.13;1.20;;;;;;;7.65;100.00;101446.19;5074572;27;20436;-77
2024/02/19 10:54:45;;;;;;;5.33;1.40;;;;;;;7.65;100.00;101443.47;5083261;28;21190;-77
2024/02/19 10:57:19;;;;;;;4.13;1.40;;;;;;;7.71;100.00;101440.88;5084543;28;20535;-77
2024/02/19 10:59:47;;;;;;;4.63;1.40;;;;;;;7.68;100.00;101441.34;5073107;28;20412;-77
2024/02/19 11:02:21;;;;;;;5.07;1.38;;;;;;;7.63;100.00;101444.78;5075002;28;20428;-77
2024/02/19 11:04:54;;;;;;;5.13;1.20;;;;;;;7.72;100.00;101446.06;5077742;27;20415;-77
2024/02/19 11:07:24;;;;;;;5.07;1.40;;;;;;;7.65;100.00;101454.31;5079949;28;20425;-78
2024/02/19 11:09:58;;;;;;;3.90;1.20;;;;;;;7.47;100.00;101452.59;5069281;28;20428;-77
2024/02/19 11:12:27;;;;;;;4.03;1.25;;;;;;;7.40;100.00;101443.81;5094339;27;20416;-77
2024/02/19 11:15:00;;;;;;;5.57;1.38;;;;;;;7.38;100.00;101442.41;5078574;28;20424;-78
2024/02/19 11:17:33;;;;;;;5.43;1.60;;;;;;;7.48;100.00;101440.72;5081150;27;20415;-77
2024/02/19 11:20:09;;;;;;;5.45;1.40;;;;;;;7.72;100.00;101445.22;5078011;28;20429;-78
2024/02/19 11:22:44;;;;;;;5.00;1.50;;;;;;;7.62;100.00;101435.84;5080325;28;20424;-77
2024/02/19 11:25:17;;;;;;;6.03;1.30;;;;;;;7.56;100.00;101434.09;5073500;28;20441;-77
2024/02/19 11:27:49;;;;;;;6.68;1.60;;;;;;;7.74;100.00;101434.97;5081301;28;20416;-78
2024/02/19 11:30:19;;;;;;;6.07;1.55;;;;;;;7.82;100.00;101434.56;5080730;27;20419;-78
2024/02/19 11:33:00;;;;;;;7.15;1.60;;;;;;;7.98;100.00;101436.50;5088184;27;21017;-77
2024/02/19 11:35:35;;;;;;;8.05;1.80;;;;;;;7.94;100.00;101431.78;5093759;27;20804;-77
2024/02/19 11:38:09;;;;;;;7.82;1.90;;;;;;;7.91;100.00;101435.00;5073221;27;20412;-77
2024/02/19 11:40:43;;;;;;;9.27;2.00;;;;;;;7.98;100.00;101430.25;5100727;27;20428;-77
2024/02/19 11:43:16;;;;;;;8.57;1.70;;;;;;;7.96;100.00;101429.69;5070697;28;21289;-77
2024/02/19 11:45:50;;;;;;;10.80;1.80;;;;;;;7.91;100.00;101441.25;5079773;28;20434;-78
2024/02/19 11:48:19;;;;;;;7.72;1.67;;;;;;;7.93;100.00;101419.34;5073084;28;20412;-78